sensor_id;sensor_type;location;lat;lon;timestamp;pressure;altitude;pressure_sealevel;temperature;humidity
22333;BME280;11334;36.986;-121.936;2023-02-28T00:00:11;101062.31;;;12.27;82.12
22333;BME280;11334;36.986;-121.936;2023-02-28T00:02:40;101053.56;;;12.34;83.11
22333;BME280;11334;36.986;-121.936;2023-02-28T00:05:08;101052.06;;;12.32;85.91
22333;BME280;11334;36.986;-121.936;2023-02-28T00:07:35;101069.50;;;12.34;79.76
22333;BME280;11334;36.986;-121.936;2023-02-28T00:10:02;101060.84;;;12.32;82.18
22333;BME280;11334;36.986;-121.936;2023-02-28T00:12:29;101066.84;;;12.34;83.68
22333;BME280;11334;36.986;-121.936;2023-02-28T00:14:55;101068.66;;;12.34;83.97
22333;BME280;11334;36.986;-121.936;2023-02-28T00:17:22;101066.22;;;12.40;82.28
22333;BME280;11334;36.986;-121.936;2023-02-28T00:19:48;101093.09;;;12.37;82.68
22333;BME280;11334;36.986;-121.936;2023-02-28T00:22:15;101075.78;;;12.26;85.63
22333;BME280;11334;36.986;-121.936;2023-02-28T00:24:42;101088.31;;;12.41;85.88
22333;BME280;11334;36.986;-121.936;2023-02-28T00:27:08;101082.00;;;12.50;84.25
22333;BME280;11334;36.986;-121.936;2023-02-28T00:29:34;101079.19;;;12.43;84.98
22333;BME280;11334;36.986;-121.936;2023-02-28T00:32:01;101078.66;;;12.40;86.46
22333;BME280;11334;36.986;-121.936;2023-02-28T00:34:27;101076.00;;;12.40;86.37
22333;BME280;11334;36.986;-121.936;2023-02-28T00:36:53;101083.13;;;12.39;86.06
22333;BME280;11334;36.986;-121.936;2023-02-28T00:39:20;101086.59;;;12.32;87.20
22333;BME280;11334;36.986;-121.936;2023-02-28T00:41:46;101070.31;;;12.35;86.61
22333;BME280;11334;36.986;-121.936;2023-02-28T00:44:12;101074.06;;;12.17;86.30
22333;BME280;11334;36.986;-121.936;2023-02-28T00:46:39;101073.59;;;12.21;87.05
22333;BME280;11334;36.986;-121.936;2023-02-28T00:49:05;101087.19;;;12.18;87.67
22333;BME280;11334;36.986;-121.936;2023-02-28T00:51:31;101091.41;;;12.29;86.90
22333;BME280;11334;36.986;-121.936;2023-02-28T00:53:58;101094.41;;;12.33;86.30
22333;BME280;11334;36.986;-121.936;2023-02-28T00:56:24;101089.53;;;12.21;87.42
22333;BME280;11334;36.986;-121.936;2023-02-28T00:58:50;101100.66;;;12.25;86.97
22333;BME280;11334;36.986;-121.936;2023-02-28T01:01:16;101098.34;;;12.22;85.17
22333;BME280;11334;36.986;-121.936;2023-02-28T01:03:42;101096.34;;;12.24;85.43
22333;BME280;11334;36.986;-121.936;2023-02-28T01:06:09;101107.44;;;12.19;84.91
22333;BME280;11334;36.986;-121.936;2023-02-28T01:08:35;101102.50;;;12.24;83.72
22333;BME280;11334;36.986;-121.936;2023-02-28T01:11:10;101106.44;;;12.20;83.79
22333;BME280;11334;36.986;-121.936;2023-02-28T01:13:37;101108.03;;;12.31;82.42
22333;BME280;11334;36.986;-121.936;2023-02-28T01:16:03;101111.16;;;12.26;83.79
22333;BME280;11334;36.986;-121.936;2023-02-28T01:18:30;101115.63;;;12.26;85.22
22333;BME280;11334;36.986;-121.936;2023-02-28T01:20:57;101121.91;;;12.25;85.84
22333;BME280;11334;36.986;-121.936;2023-02-28T01:23:23;101113.81;;;12.26;86.66
22333;BME280;11334;36.986;-121.936;2023-02-28T01:25:51;101091.00;;;12.16;86.28
22333;BME280;11334;36.986;-121.936;2023-02-28T01:28:17;101110.13;;;12.27;86.44
22333;BME280;11334;36.986;-121.936;2023-02-28T01:30:48;101126.06;;;12.27;85.99
22333;BME280;11334;36.986;-121.936;2023-02-28T01:33:15;101122.28;;;12.30;86.48
22333;BME280;11334;36.986;-121.936;2023-02-28T01:35:41;101124.22;;;12.20;86.01
22333;BME280;11334;36.986;-121.936;2023-02-28T01:38:07;101113.03;;;12.08;86.60
22333;BME280;11334;36.986;-121.936;2023-02-28T01:40:33;101115.69;;;12.08;86.67
22333;BME280;11334;36.986;-121.936;2023-02-28T01:43:00;101126.16;;;12.10;85.73
22333;BME280;11334;36.986;-121.936;2023-02-28T01:45:28;101131.09;;;12.05;85.19
22333;BME280;11334;36.986;-121.936;2023-02-28T01:47:58;101126.09;;;12.02;85.55
22333;BME280;11334;36.986;-121.936;2023-02-28T01:50:31;101129.84;;;11.92;85.58
22333;BME280;11334;36.986;-121.936;2023-02-28T01:53:01;101129.31;;;11.88;86.73
22333;BME280;11334;36.986;-121.936;2023-02-28T01:55:31;101133.44;;;11.83;86.55
22333;BME280;11334;36.986;-121.936;2023-02-28T01:58:00;101131.78;;;11.82;86.72
22333;BME280;11334;36.986;-121.936;2023-02-28T02:00:29;101121.47;;;11.79;86.41
22333;BME280;11334;36.986;-121.936;2023-02-28T02:02:59;101114.44;;;11.70;86.79
22333;BME280;11334;36.986;-121.936;2023-02-28T02:05:28;101112.47;;;11.72;86.93
22333;BME280;11334;36.986;-121.936;2023-02-28T02:08:01;101108.91;;;11.64;86.75
22333;BME280;11334;36.986;-121.936;2023-02-28T02:10:39;101113.22;;;11.65;87.45
22333;BME280;11334;36.986;-121.936;2023-02-28T02:24:47;101142.75;;;11.44;89.02
22333;BME280;11334;36.986;-121.936;2023-02-28T02:38:48;101145.91;;;11.31;87.79
22333;BME280;11334;36.986;-121.936;2023-02-28T02:43:52;101142.66;;;11.19;87.45
22333;BME280;11334;36.986;-121.936;2023-02-28T02:46:28;101158.47;;;11.11;87.78
22333;BME280;11334;36.986;-121.936;2023-02-28T02:48:58;101136.56;;;10.92;87.49
22333;BME280;11334;36.986;-121.936;2023-02-28T02:51:27;101160.19;;;11.03;88.48
22333;BME280;11334;36.986;-121.936;2023-02-28T02:56:29;101160.03;;;10.87;89.19
22333;BME280;11334;36.986;-121.936;2023-02-28T02:59:02;101161.81;;;10.87;89.21
22333;BME280;11334;36.986;-121.936;2023-02-28T03:01:30;101180.38;;;10.87;88.43
22333;BME280;11334;36.986;-121.936;2023-02-28T03:04:00;101160.25;;;10.67;88.74
22333;BME280;11334;36.986;-121.936;2023-02-28T03:06:27;101171.56;;;10.69;88.90
22333;BME280;11334;36.986;-121.936;2023-02-28T03:08:53;101175.34;;;10.67;88.94
22333;BME280;11334;36.986;-121.936;2023-02-28T03:11:20;101174.19;;;10.69;89.05
22333;BME280;11334;36.986;-121.936;2023-02-28T03:16:33;101186.53;;;10.61;87.91
22333;BME280;11334;36.986;-121.936;2023-02-28T03:27:49;101208.34;;;10.45;88.59
22333;BME280;11334;36.986;-121.936;2023-02-28T03:33:58;101204.19;;;10.34;89.25
22333;BME280;11334;36.986;-121.936;2023-02-28T03:36:31;101208.22;;;10.38;88.96
22333;BME280;11334;36.986;-121.936;2023-02-28T03:39:05;101220.31;;;10.40;88.97
22333;BME280;11334;36.986;-121.936;2023-02-28T03:44:35;101210.03;;;10.28;89.30
22333;BME280;11334;36.986;-121.936;2023-02-28T03:49:36;101212.75;;;10.18;89.88
22333;BME280;11334;36.986;-121.936;2023-02-28T03:52:09;101216.06;;;10.20;89.92
22333;BME280;11334;36.986;-121.936;2023-02-28T03:54:44;101213.56;;;10.19;89.01
22333;BME280;11334;36.986;-121.936;2023-02-28T03:57:33;101197.13;;;10.15;89.14
22333;BME280;11334;36.986;-121.936;2023-02-28T04:00:46;101214.28;;;10.21;88.23
22333;BME280;11334;36.986;-121.936;2023-02-28T04:03:05;101217.63;;;10.13;88.08
22333;BME280;11334;36.986;-121.936;2023-02-28T04:05:32;101220.28;;;10.13;87.82
22333;BME280;11334;36.986;-121.936;2023-02-28T04:08:07;101221.69;;;10.08;88.32
22333;BME280;11334;36.986;-121.936;2023-02-28T04:10:33;101225.59;;;10.04;88.31
22333;BME280;11334;36.986;-121.936;2023-02-28T04:13:00;101225.88;;;10.01;89.45
22333;BME280;11334;36.986;-121.936;2023-02-28T04:15:26;101229.75;;;9.97;89.41
22333;BME280;11334;36.986;-121.936;2023-02-28T04:17:53;101231.28;;;9.90;89.04
22333;BME280;11334;36.986;-121.936;2023-02-28T04:20:19;101234.34;;;9.86;89.29
22333;BME280;11334;36.986;-121.936;2023-02-28T04:22:45;101246.88;;;9.84;89.69
22333;BME280;11334;36.986;-121.936;2023-02-28T04:25:11;101236.84;;;9.87;89.34
22333;BME280;11334;36.986;-121.936;2023-02-28T04:27:38;101238.13;;;9.74;89.45
22333;BME280;11334;36.986;-121.936;2023-02-28T04:30:04;101249.66;;;9.82;89.19
22333;BME280;11334;36.986;-121.936;2023-02-28T04:32:31;101258.00;;;9.78;89.72
22333;BME280;11334;36.986;-121.936;2023-02-28T04:34:57;101251.19;;;9.76;89.21
22333;BME280;11334;36.986;-121.936;2023-02-28T04:37:23;101221.81;;;9.60;89.37
22333;BME280;11334;36.986;-121.936;2023-02-28T04:39:54;101248.28;;;9.69;89.51
22333;BME280;11334;36.986;-121.936;2023-02-28T04:42:20;101242.84;;;9.61;90.24
22333;BME280;11334;36.986;-121.936;2023-02-28T04:44:47;101242.28;;;9.58;89.69
22333;BME280;11334;36.986;-121.936;2023-02-28T04:47:13;101249.78;;;9.53;90.51
22333;BME280;11334;36.986;-121.936;2023-02-28T04:49:39;101251.31;;;9.55;89.51
22333;BME280;11334;36.986;-121.936;2023-02-28T04:52:07;101251.03;;;9.58;89.37
22333;BME280;11334;36.986;-121.936;2023-02-28T04:54:33;101254.53;;;9.77;88.81
22333;BME280;11334;36.986;-121.936;2023-02-28T04:56:59;101252.03;;;9.67;88.93
22333;BME280;11334;36.986;-121.936;2023-02-28T04:59:27;101258.56;;;9.63;89.56
22333;BME280;11334;36.986;-121.936;2023-02-28T05:01:53;101257.19;;;9.59;89.32
22333;BME280;11334;36.986;-121.936;2023-02-28T05:04:19;101241.44;;;9.48;89.16
22333;BME280;11334;36.986;-121.936;2023-02-28T05:06:45;101255.91;;;9.53;89.33
22333;BME280;11334;36.986;-121.936;2023-02-28T05:09:12;101254.53;;;9.49;89.30
22333;BME280;11334;36.986;-121.936;2023-02-28T05:11:38;101243.94;;;9.40;89.64
22333;BME280;11334;36.986;-121.936;2023-02-28T05:14:14;101257.97;;;9.41;90.89
22333;BME280;11334;36.986;-121.936;2023-02-28T05:16:40;101265.09;;;9.49;91.44
22333;BME280;11334;36.986;-121.936;2023-02-28T05:19:06;101271.50;;;9.66;91.28
22333;BME280;11334;36.986;-121.936;2023-02-28T05:21:38;101279.63;;;9.74;90.09
22333;BME280;11334;36.986;-121.936;2023-02-28T05:24:12;101293.25;;;9.69;89.73
22333;BME280;11334;36.986;-121.936;2023-02-28T05:26:41;101293.38;;;9.68;89.62
22333;BME280;11334;36.986;-121.936;2023-02-28T05:29:08;101300.47;;;9.58;90.59
22333;BME280;11334;36.986;-121.936;2023-02-28T05:31:34;101302.16;;;9.59;91.39
22333;BME280;11334;36.986;-121.936;2023-02-28T05:34:01;101310.63;;;9.62;90.99
22333;BME280;11334;36.986;-121.936;2023-02-28T05:36:30;101290.72;;;9.49;91.01
22333;BME280;11334;36.986;-121.936;2023-02-28T05:38:56;101303.81;;;9.60;91.30
22333;BME280;11334;36.986;-121.936;2023-02-28T05:41:22;101303.94;;;9.58;91.51
22333;BME280;11334;36.986;-121.936;2023-02-28T05:43:49;101297.13;;;9.56;91.65
22333;BME280;11334;36.986;-121.936;2023-02-28T05:46:15;101297.00;;;9.57;91.46
22333;BME280;11334;36.986;-121.936;2023-02-28T05:48:45;101292.94;;;9.53;91.87
22333;BME280;11334;36.986;-121.936;2023-02-28T05:51:11;101301.56;;;9.55;92.02
22333;BME280;11334;36.986;-121.936;2023-02-28T05:53:37;101288.22;;;9.57;92.05
22333;BME280;11334;36.986;-121.936;2023-02-28T05:56:04;101293.50;;;9.57;92.20
22333;BME280;11334;36.986;-121.936;2023-02-28T05:58:31;101289.34;;;9.54;92.51
22333;BME280;11334;36.986;-121.936;2023-02-28T06:00:58;101293.22;;;9.60;92.25
22333;BME280;11334;36.986;-121.936;2023-02-28T06:03:24;101291.16;;;9.54;92.15
22333;BME280;11334;36.986;-121.936;2023-02-28T06:05:51;101293.50;;;9.57;91.90
22333;BME280;11334;36.986;-121.936;2023-02-28T06:08:17;101292.81;;;9.55;92.02
22333;BME280;11334;36.986;-121.936;2023-02-28T06:10:44;101292.94;;;9.53;92.20
22333;BME280;11334;36.986;-121.936;2023-02-28T06:13:11;101296.69;;;9.51;92.36
22333;BME280;11334;36.986;-121.936;2023-02-28T06:15:38;101294.75;;;9.53;92.21
22333;BME280;11334;36.986;-121.936;2023-02-28T06:18:04;101294.63;;;9.54;92.74
22333;BME280;11334;36.986;-121.936;2023-02-28T06:20:31;101302.69;;;9.53;92.58
22333;BME280;11334;36.986;-121.936;2023-02-28T06:22:58;101300.75;;;9.55;92.38
22333;BME280;11334;36.986;-121.936;2023-02-28T06:25:25;101305.75;;;9.58;92.72
22333;BME280;11334;36.986;-121.936;2023-02-28T06:27:52;101300.47;;;9.58;92.69
22333;BME280;11334;36.986;-121.936;2023-02-28T06:30:19;101296.00;;;9.49;93.10
22333;BME280;11334;36.986;-121.936;2023-02-28T06:32:49;101306.88;;;9.55;92.40
22333;BME280;11334;36.986;-121.936;2023-02-28T06:35:15;101307.03;;;9.54;92.19
22333;BME280;11334;36.986;-121.936;2023-02-28T06:37:45;101305.75;;;9.58;91.76
22333;BME280;11334;36.986;-121.936;2023-02-28T06:40:13;101290.72;;;9.49;91.74
22333;BME280;11334;36.986;-121.936;2023-02-28T06:42:39;101290.00;;;9.47;91.72
22333;BME280;11334;36.986;-121.936;2023-02-28T06:45:06;101302.16;;;9.59;91.92
22333;BME280;11334;36.986;-121.936;2023-02-28T06:47:36;101315.63;;;9.56;91.83
22333;BME280;11334;36.986;-121.936;2023-02-28T06:50:03;101307.56;;;9.57;91.90
22333;BME280;11334;36.986;-121.936;2023-02-28T06:52:30;101313.94;;;9.45;91.71
22333;BME280;11334;36.986;-121.936;2023-02-28T06:54:56;101305.31;;;9.44;92.38
22333;BME280;11334;36.986;-121.936;2023-02-28T06:57:32;101315.06;;;9.43;92.60
22333;BME280;11334;36.986;-121.936;2023-02-28T07:00:00;101316.03;;;9.42;92.17
22333;BME280;11334;36.986;-121.936;2023-02-28T07:02:27;101312.69;;;9.40;93.31
22333;BME280;11334;36.986;-121.936;2023-02-28T07:04:54;101321.44;;;9.41;92.07
22333;BME280;11334;36.986;-121.936;2023-02-28T07:07:20;101315.47;;;9.48;90.88
22333;BME280;11334;36.986;-121.936;2023-02-28T07:09:47;101291.78;;;9.28;91.88
22333;BME280;11334;36.986;-121.936;2023-02-28T07:12:13;101317.22;;;9.29;92.53
22333;BME280;11334;36.986;-121.936;2023-02-28T07:14:39;101320.41;;;9.23;93.13
22333;BME280;11334;36.986;-121.936;2023-02-28T07:17:09;101322.66;;;9.27;93.39
22333;BME280;11334;36.986;-121.936;2023-02-28T07:19:38;101310.41;;;9.26;93.51
22333;BME280;11334;36.986;-121.936;2023-02-28T07:22:05;101313.06;;;9.26;93.84
22333;BME280;11334;36.986;-121.936;2023-02-28T07:24:32;101317.66;;;9.24;93.67
22333;BME280;11334;36.986;-121.936;2023-02-28T07:26:58;101317.66;;;9.24;93.60
22333;BME280;11334;36.986;-121.936;2023-02-28T07:29:25;101308.53;;;9.08;93.57
22333;BME280;11334;36.986;-121.936;2023-02-28T07:31:55;101324.06;;;9.22;93.34
22333;BME280;11334;36.986;-121.936;2023-02-28T07:34:22;101323.47;;;9.18;93.10
22333;BME280;11334;36.986;-121.936;2023-02-28T07:36:48;101318.44;;;9.15;93.28
22333;BME280;11334;36.986;-121.936;2023-02-28T07:39:19;101322.75;;;9.16;93.70
22333;BME280;11334;36.986;-121.936;2023-02-28T07:41:46;101313.28;;;9.14;93.90
22333;BME280;11334;36.986;-121.936;2023-02-28T07:44:12;101316.75;;;9.05;94.43
22333;BME280;11334;36.986;-121.936;2023-02-28T07:46:38;101323.13;;;9.03;94.54
22333;BME280;11334;36.986;-121.936;2023-02-28T07:49:05;101330.53;;;9.09;94.23
22333;BME280;11334;36.986;-121.936;2023-02-28T07:51:32;101326.66;;;9.13;93.31
22333;BME280;11334;36.986;-121.936;2023-02-28T07:53:59;101320.63;;;9.01;92.50
22333;BME280;11334;36.986;-121.936;2023-02-28T07:56:25;101326.72;;;9.02;93.00
22333;BME280;11334;36.986;-121.936;2023-02-28T07:58:51;101322.00;;;8.96;93.39
22333;BME280;11334;36.986;-121.936;2023-02-28T08:01:18;101323.66;;;8.97;93.83
22333;BME280;11334;36.986;-121.936;2023-02-28T08:03:45;101325.91;;;9.01;93.47
22333;BME280;11334;36.986;-121.936;2023-02-28T08:06:20;101321.44;;;9.02;92.92
22333;BME280;11334;36.986;-121.936;2023-02-28T08:08:47;101317.41;;;8.98;93.53
22333;BME280;11334;36.986;-121.936;2023-02-28T08:11:13;101318.13;;;9.00;93.94
22333;BME280;11334;36.986;-121.936;2023-02-28T08:13:39;101318.38;;;8.97;94.17
22333;BME280;11334;36.986;-121.936;2023-02-28T08:16:07;101321.53;;;8.91;94.13
22333;BME280;11334;36.986;-121.936;2023-02-28T08:18:34;101321.53;;;8.91;94.33
22333;BME280;11334;36.986;-121.936;2023-02-28T08:21:09;101326.94;;;8.89;94.09
22333;BME280;11334;36.986;-121.936;2023-02-28T08:23:35;101314.34;;;8.93;94.14
22333;BME280;11334;36.986;-121.936;2023-02-28T08:26:02;101318.78;;;8.92;93.95
22333;BME280;11334;36.986;-121.936;2023-02-28T08:28:29;101325.03;;;8.91;93.41
22333;BME280;11334;36.986;-121.936;2023-02-28T08:30:56;101319.19;;;8.88;93.13
22333;BME280;11334;36.986;-121.936;2023-02-28T08:33:23;101327.75;;;8.81;93.50
22333;BME280;11334;36.986;-121.936;2023-02-28T08:35:53;101331.78;;;8.75;93.50
22333;BME280;11334;36.986;-121.936;2023-02-28T08:38:20;101328.28;;;8.75;93.26
22333;BME280;11334;36.986;-121.936;2023-02-28T08:40:46;101325.88;;;8.72;93.44
22333;BME280;11334;36.986;-121.936;2023-02-28T08:43:12;101327.44;;;8.74;93.27
22333;BME280;11334;36.986;-121.936;2023-02-28T08:45:39;101322.69;;;8.68;92.90
22333;BME280;11334;36.986;-121.936;2023-02-28T08:48:06;101323.66;;;8.67;93.12
22333;BME280;11334;36.986;-121.936;2023-02-28T08:50:32;101324.63;;;8.66;93.38
22333;BME280;11334;36.986;-121.936;2023-02-28T08:52:58;101325.44;;;8.67;93.71
22333;BME280;11334;36.986;-121.936;2023-02-28T08:55:25;101320.38;;;8.54;94.02
22333;BME280;11334;36.986;-121.936;2023-02-28T08:57:51;101316.63;;;8.57;94.23
22333;BME280;11334;36.986;-121.936;2023-02-28T09:00:18;101326.81;;;8.61;94.70
22333;BME280;11334;36.986;-121.936;2023-02-28T09:02:45;101333.53;;;8.65;94.71
22333;BME280;11334;36.986;-121.936;2023-02-28T09:05:11;101331.25;;;8.61;94.25
22333;BME280;11334;36.986;-121.936;2023-02-28T09:07:37;101329.72;;;8.58;94.41
22333;BME280;11334;36.986;-121.936;2023-02-28T09:10:04;101323.59;;;8.58;94.85
22333;BME280;11334;36.986;-121.936;2023-02-28T09:12:33;101326.69;;;8.63;94.66
22333;BME280;11334;36.986;-121.936;2023-02-28T09:15:00;101311.06;;;8.51;95.06
22333;BME280;11334;36.986;-121.936;2023-02-28T09:17:27;101321.78;;;8.58;95.04
22333;BME280;11334;36.986;-121.936;2023-02-28T09:19:53;101330.16;;;8.63;95.04
22333;BME280;11334;36.986;-121.936;2023-02-28T09:22:19;101332.81;;;8.63;94.88
22333;BME280;11334;36.986;-121.936;2023-02-28T09:24:46;101338.34;;;8.60;95.23
22333;BME280;11334;36.986;-121.936;2023-02-28T09:27:12;101339.84;;;8.53;95.97
22333;BME280;11334;36.986;-121.936;2023-02-28T09:29:38;101334.44;;;8.55;97.01
22333;BME280;11334;36.986;-121.936;2023-02-28T09:32:05;101338.84;;;8.54;97.11
22333;BME280;11334;36.986;-121.936;2023-02-28T09:34:31;101334.88;;;8.60;97.11
22333;BME280;11334;36.986;-121.936;2023-02-28T09:36:57;101333.47;;;8.56;97.37
22333;BME280;11334;36.986;-121.936;2023-02-28T09:39:24;101334.88;;;8.60;97.53
22333;BME280;11334;36.986;-121.936;2023-02-28T09:41:53;101335.00;;;8.58;97.54
22333;BME280;11334;36.986;-121.936;2023-02-28T09:44:33;101340.00;;;8.61;98.15
22333;BME280;11334;36.986;-121.936;2023-02-28T09:47:07;101329.06;;;8.66;98.25
22333;BME280;11334;36.986;-121.936;2023-02-28T09:49:42;101329.91;;;8.66;98.21
22333;BME280;11334;36.986;-121.936;2023-02-28T09:52:15;101327.41;;;8.65;98.36
22333;BME280;11334;36.986;-121.936;2023-02-28T09:54:43;101335.19;;;8.66;98.54
22333;BME280;11334;36.986;-121.936;2023-02-28T10:00:02;101323.13;;;8.73;98.62
22333;BME280;11334;36.986;-121.936;2023-02-28T10:09:12;101309.09;;;8.73;99.76
22333;BME280;11334;36.986;-121.936;2023-02-28T10:11:40;101296.84;;;8.72;99.86
22333;BME280;11334;36.986;-121.936;2023-02-28T10:14:17;101309.28;;;8.81;99.80
22333;BME280;11334;36.986;-121.936;2023-02-28T10:16:58;101300.94;;;8.85;99.23
22333;BME280;11334;36.986;-121.936;2023-02-28T10:20:19;101298.44;;;8.83;98.72
22333;BME280;11334;36.986;-121.936;2023-02-28T10:22:34;101285.38;;;8.82;98.97
22333;BME280;11334;36.986;-121.936;2023-02-28T10:25:25;101292.38;;;8.92;98.66
22333;BME280;11334;36.986;-121.936;2023-02-28T10:28:12;101296.78;;;8.92;98.66
22333;BME280;11334;36.986;-121.936;2023-02-28T10:30:47;101283.41;;;8.84;98.35
22333;BME280;11334;36.986;-121.936;2023-02-28T10:33:34;101291.09;;;8.96;98.52
22333;BME280;11334;36.986;-121.936;2023-02-28T10:36:01;101285.13;;;8.94;98.62
22333;BME280;11334;36.986;-121.936;2023-02-28T10:38:39;101275.13;;;8.98;98.52
22333;BME280;11334;36.986;-121.936;2023-02-28T10:41:11;101284.44;;;9.02;98.13
22333;BME280;11334;36.986;-121.936;2023-02-28T10:43:39;101286.53;;;8.98;98.12
22333;BME280;11334;36.986;-121.936;2023-02-28T10:48:40;101273.31;;;8.98;98.45
22333;BME280;11334;36.986;-121.936;2023-02-28T10:51:16;101272.34;;;8.99;98.29
22333;BME280;11334;36.986;-121.936;2023-02-28T10:53:50;101271.38;;;9.00;97.95
22333;BME280;11334;36.986;-121.936;2023-02-28T10:56:23;101274.16;;;8.99;97.74
22333;BME280;11334;36.986;-121.936;2023-02-28T10:59:02;101274.16;;;8.99;97.96
22333;BME280;11334;36.986;-121.936;2023-02-28T11:01:42;101276.09;;;8.97;98.19
22333;BME280;11334;36.986;-121.936;2023-02-28T11:04:23;101272.78;;;9.04;97.95
22333;BME280;11334;36.986;-121.936;2023-02-28T11:07:27;101279.03;;;9.03;97.85
22333;BME280;11334;36.986;-121.936;2023-02-28T11:09:57;101262.88;;;8.97;97.64
22333;BME280;11334;36.986;-121.936;2023-02-28T11:12:39;101267.31;;;8.96;97.58
22333;BME280;11334;36.986;-121.936;2023-02-28T11:15:34;101266.22;;;8.99;97.51
22333;BME280;11334;36.986;-121.936;2023-02-28T11:20:40;101272.50;;;8.98;97.47
22333;BME280;11334;36.986;-121.936;2023-02-28T11:23:12;101270.41;;;9.01;97.16
22333;BME280;11334;36.986;-121.936;2023-02-28T11:25:39;101274.84;;;9.01;96.95
22333;BME280;11334;36.986;-121.936;2023-02-28T11:28:33;101269.31;;;9.04;97.58
22333;BME280;11334;36.986;-121.936;2023-02-28T11:31:18;101272.75;;;8.95;98.21
22333;BME280;11334;36.986;-121.936;2023-02-28T11:33:54;101277.63;;;8.99;98.13
22333;BME280;11334;36.986;-121.936;2023-02-28T11:36:30;101271.94;;;9.04;98.24
22333;BME280;11334;36.986;-121.936;2023-02-28T11:39:07;101271.81;;;9.05;97.61
22333;BME280;11334;36.986;-121.936;2023-02-28T11:41:56;101274.59;;;9.04;97.55
22333;BME280;11334;36.986;-121.936;2023-02-28T12:03:26;101267.75;;;9.01;97.01
22333;BME280;11334;36.986;-121.936;2023-02-28T12:06:36;101268.59;;;9.02;97.39
22333;BME280;11334;36.986;-121.936;2023-02-28T12:09:38;101256.38;;;9.01;97.24
22333;BME280;11334;36.986;-121.936;2023-02-28T12:12:31;101261.09;;;8.97;97.39
22333;BME280;11334;36.986;-121.936;2023-02-28T12:18:00;101254.94;;;8.97;97.82
22333;BME280;11334;36.986;-121.936;2023-02-28T12:23:51;101259.56;;;8.95;98.32
22333;BME280;11334;36.986;-121.936;2023-02-28T12:26:41;101261.75;;;8.90;98.28
22333;BME280;11334;36.986;-121.936;2023-02-28T12:29:25;101253.13;;;8.88;98.67
22333;BME280;11334;36.986;-121.936;2023-02-28T12:32:01;101251.03;;;8.91;99.11
22333;BME280;11334;36.986;-121.936;2023-02-28T12:34:58;101260.50;;;8.94;98.62
22333;BME280;11334;36.986;-121.936;2023-02-28T12:37:29;101257.44;;;8.89;98.41
22333;BME280;11334;36.986;-121.936;2023-02-28T12:40:02;101239.59;;;8.82;98.92
22333;BME280;11334;36.986;-121.936;2023-02-28T12:42:40;101258.53;;;8.86;98.96
22333;BME280;11334;36.986;-121.936;2023-02-28T12:45:20;101251.59;;;8.85;99.17
22333;BME280;11334;36.986;-121.936;2023-02-28T12:47:52;101251.19;;;8.90;98.74
22333;BME280;11334;36.986;-121.936;2023-02-28T12:50:21;101239.66;;;8.91;98.41
22333;BME280;11334;36.986;-121.936;2023-02-28T12:53:06;101238.41;;;8.95;98.22
22333;BME280;11334;36.986;-121.936;2023-02-28T12:55:41;101241.19;;;8.93;98.04
22333;BME280;11334;36.986;-121.936;2023-02-28T13:01:17;101236.59;;;8.95;97.85
22333;BME280;11334;36.986;-121.936;2023-02-28T13:04:20;101257.88;;;8.94;98.08
22333;BME280;11334;36.986;-121.936;2023-02-28T13:07:15;101243.28;;;8.90;97.89
22333;BME280;11334;36.986;-121.936;2023-02-28T13:09:56;101244.66;;;8.94;97.88
22333;BME280;11334;36.986;-121.936;2023-02-28T13:12:24;101231.72;;;8.91;97.53
22333;BME280;11334;36.986;-121.936;2023-02-28T13:15:08;101227.41;;;8.99;97.61
22333;BME280;11334;36.986;-121.936;2023-02-28T13:17:48;101224.66;;;9.01;96.94
22333;BME280;11334;36.986;-121.936;2023-02-28T13:20:18;101233.41;;;9.01;96.79
22333;BME280;11334;36.986;-121.936;2023-02-28T13:22:47;101201.66;;;8.82;97.01
22333;BME280;11334;36.986;-121.936;2023-02-28T13:27:50;101212.53;;;8.98;95.80
22333;BME280;11334;36.986;-121.936;2023-02-28T13:38:51;101209.34;;;8.95;96.98
22333;BME280;11334;36.986;-121.936;2023-02-28T13:46:38;101213.34;;;8.89;97.47
22333;BME280;11334;36.986;-121.936;2023-02-28T13:49:32;101205.69;;;8.86;97.79
22333;BME280;11334;36.986;-121.936;2023-02-28T13:57:20;101188.88;;;8.97;97.28
22333;BME280;11334;36.986;-121.936;2023-02-28T14:02:48;101182.06;;;8.94;95.57
22333;BME280;11334;36.986;-121.936;2023-02-28T14:05:19;101174.03;;;8.96;95.91
22333;BME280;11334;36.986;-121.936;2023-02-28T14:07:56;101172.91;;;8.98;95.51
22333;BME280;11334;36.986;-121.936;2023-02-28T14:10:31;101160.81;;;8.96;95.49
22333;BME280;11334;36.986;-121.936;2023-02-28T14:13:01;101157.75;;;9.00;95.33
22333;BME280;11334;36.986;-121.936;2023-02-28T14:15:48;101173.22;;;9.05;95.10
22333;BME280;11334;36.986;-121.936;2023-02-28T14:18:25;101182.53;;;9.09;94.69
22333;BME280;11334;36.986;-121.936;2023-02-28T14:20:57;101204.94;;;9.05;94.71
22333;BME280;11334;36.986;-121.936;2023-02-28T14:26:19;101207.94;;;8.91;96.64
22333;BME280;11334;36.986;-121.936;2023-02-28T14:32:02;101196.53;;;8.90;96.35
22333;BME280;11334;36.986;-121.936;2023-02-28T14:34:51;101219.66;;;8.98;96.47
22333;BME280;11334;36.986;-121.936;2023-02-28T14:37:28;101224.09;;;8.97;97.23
22333;BME280;11334;36.986;-121.936;2023-02-28T14:39:56;101218.22;;;8.94;97.72
22333;BME280;11334;36.986;-121.936;2023-02-28T14:42:32;101210.31;;;8.94;98.86
22333;BME280;11334;36.986;-121.936;2023-02-28T14:45:00;101196.25;;;8.93;98.93
22333;BME280;11334;36.986;-121.936;2023-02-28T14:47:36;101191.81;;;8.94;98.93